Terminal Aerodrome Forecast
Issued by NWS Albany, NY

Home | Current Version | Previous Version | Text Only | Print | Product List | Glossary On
Versions: 1 2 3 4 5 6 7 8 9 10 11 12 13 14 15 16 17 18 19 20 21 22 23 24 25 26 27
313
FTUS41 KALY 262336
TAFALB
TAF
KALB 262336Z 2700/2724 28008KT P6SM BKN060
     FM270600 19006KT P6SM FEW050
     FM271300 17009KT P6SM SCT100
     FM271600 24013G24KT P6SM SCT070
     FM272300 22005KT P6SM FEW060=

USA.gov is the U.S. government's official web portal to all federal, state and local government web resources and services.